Time;durP1;ratioP1;P1;durP2;ratioP2;P2;SDS_P1;SDS_P2;PMS_P1;PMS_P2;Temp;Humidity;BMP_temperature;BMP_pressure;BME280_temperature;BME280_humidity;BME280_pressure;Samples;Min_cycle;Max_cycle;Signal;HPM_P1;HPM_P2
2022/05/30 00:01:39;;;;;;;6.13;1.25;;;8.90;99.90;;;;;;4248621;27;20494;-85
2022/05/30 00:03:40;;;;;;;4.03;1.83;;;8.80;99.90;;;;;;4249038;27;20039;-85
2022/05/30 00:05:46;;;;;;;6.05;1.17;;;8.50;99.90;;;;;;4249174;27;20057;-85
2022/05/30 00:07:46;;;;;;;7.75;1.20;;;8.40;99.90;;;;;;4248863;27;20043;-85
2022/05/30 00:09:47;;;;;;;6.78;1.13;;;8.40;99.90;;;;;;4248828;27;20054;-85
2022/05/30 00:11:50;;;;;;;7.95;2.08;;;8.70;99.90;;;;;;4247939;27;20035;-85
2022/05/30 00:13:50;;;;;;;9.20;1.30;;;8.40;99.90;;;;;;4248179;27;20515;-85
2022/05/30 00:15:51;;;;;;;8.70;1.33;;;8.60;99.90;;;;;;4248618;27;20050;-85
2022/05/30 00:17:56;;;;;;;8.15;1.33;;;8.40;99.90;;;;;;4248617;27;20051;-85
2022/05/30 00:19:57;;;;;;;5.40;1.60;;;8.90;99.90;;;;;;4248728;27;20053;-85
2022/05/30 00:21:57;;;;;;;4.78;1.27;;;8.90;99.90;;;;;;4247495;27;20058;-85
2022/05/30 00:23:59;;;;;;;3.75;1.33;;;8.90;99.90;;;;;;4229621;28;20486;-85
2022/05/30 00:26:00;;;;;;;4.68;1.17;;;8.20;99.90;;;;;;4248875;27;20050;-85
2022/05/30 00:28:00;;;;;;;3.53;1.10;;;8.20;99.90;;;;;;4248872;27;20110;-86
2022/05/30 00:30:02;;;;;;;6.40;1.92;;;8.30;99.90;;;;;;4248518;27;20087;-85
2022/05/30 00:32:05;;;;;;;2.95;1.20;;;8.10;99.90;;;;;;4247628;27;20046;-85
2022/05/30 00:34:06;;;;;;;3.33;1.08;;;8.10;99.90;;;;;;4249233;27;20110;-85
2022/05/30 00:36:07;;;;;;;3.10;0.90;;;8.10;99.90;;;;;;4249285;27;20046;-85
2022/05/30 00:38:08;;;;;;;6.20;1.45;;;8.10;99.90;;;;;;4230532;28;20051;-85
2022/05/30 00:40:09;;;;;;;3.45;1.00;;;8.10;99.90;;;;;;4249057;27;20087;-85
2022/05/30 00:42:14;;;;;;;1.58;0.90;;;8.10;99.90;;;;;;4248415;27;20044;-85
2022/05/30 00:44:15;;;;;;;4.50;1.40;;;8.00;99.90;;;;;;4248979;27;20047;-85
2022/05/30 00:46:16;;;;;;;5.35;1.15;;;8.10;99.90;;;;;;4248622;28;20119;-84
2022/05/30 00:48:20;;;;;;;8.45;1.55;;;8.70;99.90;;;;;;4248365;28;20047;-85
2022/05/30 00:50:21;;;;;;;3.15;0.90;;;8.10;99.90;;;;;;4248487;28;20046;-85
2022/05/30 00:52:31;;;;;;;7.95;1.42;;;8.10;99.90;;;;;;4248363;28;20039;-85
2022/05/30 00:54:45;;;;;;;4.10;1.05;;;8.10;99.90;;;;;;4230097;28;20048;-85
2022/05/30 00:56:51;;;;;;;2.47;1.20;;;8.60;99.90;;;;;;4248388;28;20043;-84
2022/05/30 00:58:52;;;;;;;3.10;1.10;;;8.20;99.90;;;;;;4238943;28;20054;-84
2022/05/30 01:00:52;;;;;;;5.82;1.13;;;9.20;99.90;;;;;;4231229;28;20140;-84
2022/05/30 01:07:33;;;;;;;5.13;1.42;;;8.20;99.90;;;;;;4231414;28;19920;-84
2022/05/30 01:09:40;;;;;;;5.32;1.20;;;8.10;99.90;;;;;;4231280;28;20047;-84
2022/05/30 01:11:59;;;;;;;6.07;1.52;;;8.20;99.90;;;;;;4232876;28;20050;-84
2022/05/30 01:13:59;;;;;;;2.60;1.08;;;8.20;99.90;;;;;;4231105;28;20514;-84
2022/05/30 01:16:00;;;;;;;1.73;0.88;;;8.20;99.90;;;;;;4231580;28;20039;-85
2022/05/30 01:18:24;;;;;;;1.10;0.80;;;8.20;99.90;;;;;;4231033;28;20050;-85
2022/05/30 01:20:49;;;;;;;4.00;0.93;;;8.20;99.90;;;;;;4231460;28;20039;-84
2022/05/30 01:22:59;;;;;;;4.47;1.40;;;8.20;99.90;;;;;;4231619;28;20071;-85
2022/05/30 01:25:10;;;;;;;5.72;1.00;;;8.10;99.90;;;;;;4230739;28;20044;-85
2022/05/30 01:27:34;;;;;;;2.15;1.00;;;8.10;99.90;;;;;;4213015;28;20524;-85
2022/05/30 01:29:42;;;;;;;3.30;0.98;;;8.00;99.90;;;;;;4231592;28;20043;-85
2022/05/30 01:31:42;;;;;;;4.85;1.30;;;8.10;99.90;;;;;;4213094;28;20400;-85
2022/05/30 01:33:44;;;;;;;4.03;1.15;;;8.00;99.90;;;;;;4232974;28;20050;-85
2022/05/30 01:35:44;;;;;;;2.30;1.10;;;7.90;99.90;;;;;;4233835;28;20419;-86
2022/05/30 01:37:45;;;;;;;3.38;1.30;;;7.90;99.90;;;;;;4234542;28;20051;-85
2022/05/30 01:39:45;;;;;;;6.28;1.05;;;7.80;99.90;;;;;;4234295;28;20054;-85
2022/05/30 01:41:46;;;;;;;2.70;0.90;;;7.80;99.90;;;;;;4234633;28;20114;-85
2022/05/30 01:43:47;;;;;;;2.53;1.10;;;7.80;99.90;;;;;;4234178;28;20047;-85
2022/05/30 01:45:48;;;;;;;1.67;0.70;;;7.80;99.90;;;;;;4234428;28;20047;-84
2022/05/30 01:47:48;;;;;;;7.60;1.20;;;7.70;99.90;;;;;;4233922;28;20447;-84
2022/05/30 01:49:51;;;;;;;4.82;1.63;;;7.70;99.90;;;;;;4234423;28;20438;-84
2022/05/30 01:51:54;;;;;;;3.80;0.85;;;7.60;99.90;;;;;;4234078;28;20396;-84
2022/05/30 01:53:55;;;;;;;4.53;1.33;;;8.00;99.90;;;;;;4216074;28;20052;-85
2022/05/30 01:55:56;;;;;;;4.00;0.90;;;7.60;99.90;;;;;;4233397;28;20077;-85
2022/05/30 01:57:56;;;;;;;1.55;0.80;;;7.60;99.90;;;;;;4233964;28;20474;-85
2022/05/30 01:59:57;;;;;;;3.33;1.23;;;8.30;99.90;;;;;;4233919;28;20047;-85
2022/05/30 02:01:58;;;;;;;4.10;1.17;;;7.80;99.90;;;;;;4234214;28;20043;-85
2022/05/30 02:03:58;;;;;;;3.13;0.90;;;7.90;99.90;;;;;;4234139;28;20047;-86
2022/05/30 02:06:01;;;;;;;4.07;0.82;;;7.50;99.90;;;;;;4233910;28;20067;-85
2022/05/30 02:08:02;;;;;;;6.13;2.20;;;7.50;99.90;;;;;;4216401;28;20052;-86
2022/05/30 02:10:04;;;;;;;4.40;1.60;;;7.50;99.90;;;;;;4234129;28;20040;-85
2022/05/30 02:12:06;;;;;;;6.55;1.75;;;7.50;99.90;;;;;;4233683;28;20124;-85
2022/05/30 02:14:06;;;;;;;1.75;1.05;;;7.50;99.90;;;;;;4240787;27;20427;-83
2022/05/30 02:18:28;;;;;;;1.30;0.90;;;7.50;99.90;;;;;;4250873;27;20079;-85
2022/05/30 02:20:29;;;;;;;2.10;1.00;;;7.50;99.90;;;;;;4250877;27;20039;-85
2022/05/30 02:22:29;;;;;;;3.30;1.02;;;7.90;99.90;;;;;;4250385;27;20055;-84
2022/05/30 02:24:30;;;;;;;2.17;0.80;;;7.50;99.90;;;;;;4251036;27;20042;-85
2022/05/30 02:26:32;;;;;;;2.20;1.00;;;8.00;99.90;;;;;;4250752;27;20050;-85
2022/05/30 02:28:33;;;;;;;2.75;0.80;;;7.50;99.90;;;;;;4250743;27;20475;-84
2022/05/30 02:30:35;;;;;;;2.78;1.00;;;7.40;99.90;;;;;;4250722;27;20039;-85
2022/05/30 02:32:36;;;;;;;2.97;0.90;;;7.60;99.90;;;;;;4250648;27;20601;-84
2022/05/30 02:36:56;;;;;;;2.88;0.70;;;7.50;99.90;;;;;;4250613;27;20476;-84
2022/05/30 02:38:57;;;;;;;3.13;0.95;;;7.40;99.90;;;;;;4250304;27;20474;-85
2022/05/30 02:40:58;;;;;;;3.72;1.35;;;7.40;99.90;;;;;;4232363;28;20050;-84
2022/05/30 02:43:00;;;;;;;3.42;1.30;;;7.40;99.90;;;;;;4250868;27;20495;-84
2022/05/30 02:45:01;;;;;;;3.40;0.82;;;8.10;99.90;;;;;;4249497;27;20042;-84
2022/05/30 02:47:02;;;;;;;2.47;0.70;;;7.40;99.90;;;;;;4250638;27;20074;-84
2022/05/30 02:49:03;;;;;;;5.25;0.80;;;7.40;99.90;;;;;;4250346;27;20076;-84
2022/05/30 02:51:04;;;;;;;2.42;0.80;;;7.50;99.90;;;;;;4249587;27;20043;-84
2022/05/30 02:53:04;;;;;;;2.50;0.80;;;7.40;99.90;;;;;;4250766;27;20078;-84
2022/05/30 02:55:06;;;;;;;3.25;0.60;;;7.90;99.90;;;;;;4248286;27;20660;-84
2022/05/30 02:57:07;;;;;;;3.13;0.77;;;7.30;99.90;;;;;;4238829;27;20109;-84
2022/05/30 02:59:07;;;;;;;2.83;0.70;;;7.30;99.90;;;;;;4250120;27;20527;-84
2022/05/30 03:01:10;;;;;;;2.78;0.93;;;7.30;99.90;;;;;;4250150;27;20043;-84
2022/05/30 03:03:12;;;;;;;1.35;0.63;;;7.30;99.90;;;;;;4250405;27;20054;-84
2022/05/30 03:05:13;;;;;;;4.90;0.85;;;7.30;99.90;;;;;;4249878;27;20050;-84
2022/05/30 03:07:13;;;;;;;3.63;0.90;;;7.40;99.90;;;;;;4250635;27;20489;-84
2022/05/30 03:09:15;;;;;;;3.65;1.00;;;7.60;99.90;;;;;;4249723;27;20055;-84
2022/05/30 03:11:15;;;;;;;3.88;1.55;;;7.10;99.90;;;;;;4250154;27;20047;-84
2022/05/30 03:13:17;;;;;;;2.78;0.70;;;7.50;99.90;;;;;;4249786;27;20062;-84
2022/05/30 03:15:17;;;;;;;3.17;1.10;;;7.60;99.90;;;;;;4250063;27;20047;-84
2022/05/30 03:17:18;;;;;;;2.40;1.00;;;7.80;99.90;;;;;;4249977;27;20039;-84
2022/05/30 03:19:19;;;;;;;1.52;0.80;;;7.50;99.90;;;;;;4250326;27;20085;-84
2022/05/30 03:21:19;;;;;;;3.70;1.55;;;7.60;99.90;;;;;;4250061;27;20055;-85
2022/05/30 03:23:20;;;;;;;11.23;1.52;;;7.60;99.90;;;;;;4250239;27;20054;-84
2022/05/30 03:25:21;;;;;;;2.55;0.90;;;7.60;99.90;;;;;;4250443;27;20135;-85
2022/05/30 03:27:21;;;;;;;2.63;1.13;;;7.70;99.90;;;;;;4250276;27;20398;-84
2022/05/30 03:29:23;;;;;;;3.95;0.95;;;7.60;99.90;;;;;;4252354;27;20399;-85
2022/05/30 03:31:24;;;;;;;3.55;1.08;;;7.60;99.90;;;;;;4252743;27;20091;-84
2022/05/30 03:33:24;;;;;;;5.90;1.10;;;8.30;99.90;;;;;;4252901;27;20047;-85
2022/05/30 03:35:25;;;;;;;5.65;1.05;;;8.30;99.90;;;;;;4252196;27;20043;-84
2022/05/30 03:37:27;;;;;;;3.13;0.77;;;8.20;99.90;;;;;;4249639;27;20045;-84
2022/05/30 03:39:27;;;;;;;5.20;1.17;;;8.70;99.90;;;;;;4237806;27;20039;-85
2022/05/30 03:41:28;;;;;;;2.70;1.10;;;7.60;99.90;;;;;;4231805;28;20054;-85
2022/05/30 03:43:29;;;;;;;6.82;1.40;;;7.70;99.90;;;;;;4247629;27;20044;-84
2022/05/30 03:45:30;;;;;;;6.10;1.10;;;7.60;99.90;;;;;;4231765;28;20058;-85
2022/05/30 03:47:42;;;;;;;7.22;1.38;;;8.40;99.90;;;;;;4232380;28;20511;-84
2022/05/30 03:49:42;;;;;;;6.75;1.00;;;7.70;99.90;;;;;;4214237;28;20040;-84
2022/05/30 03:51:43;;;;;;;2.65;1.00;;;8.00;99.90;;;;;;4231787;28;20151;-84
2022/05/30 03:53:44;;;;;;;2.25;1.10;;;7.70;99.90;;;;;;4214044;28;20123;-84
2022/05/30 03:55:45;;;;;;;4.18;1.20;;;7.70;99.90;;;;;;4231695;28;20043;-84
2022/05/30 03:57:46;;;;;;;2.75;1.10;;;7.70;99.90;;;;;;4232210;27;20059;-84
2022/05/30 03:59:48;;;;;;;5.07;1.00;;;7.80;99.90;;;;;;4249143;27;20095;-84
2022/05/30 04:01:49;;;;;;;5.18;2.08;;;7.70;99.90;;;;;;4249292;27;20035;-85
2022/05/30 04:03:50;;;;;;;3.95;1.38;;;8.30;99.90;;;;;;4248677;27;20042;-84
2022/05/30 04:05:51;;;;;;;5.65;1.45;;;7.80;99.90;;;;;;4214293;28;20435;-84
2022/05/30 04:07:52;;;;;;;3.20;1.30;;;7.80;99.90;;;;;;4249159;27;20126;-85
2022/05/30 04:09:52;;;;;;;4.35;1.30;;;7.90;99.90;;;;;;4248521;27;20039;-84
2022/05/30 04:11:53;;;;;;;2.63;0.82;;;7.80;99.90;;;;;;4248669;27;20391;-84
2022/05/30 04:13:54;;;;;;;3.55;1.27;;;7.80;99.90;;;;;;4248801;27;20089;-84
2022/05/30 04:15:54;;;;;;;3.15;1.30;;;7.80;99.90;;;;;;4248950;27;20443;-84
2022/05/30 04:17:55;;;;;;;9.10;2.00;;;7.90;99.90;;;;;;4249031;27;20422;-84
2022/05/30 04:19:56;;;;;;;7.30;1.33;;;8.40;99.90;;;;;;4248900;27;20055;-84
2022/05/30 04:21:56;;;;;;;2.80;1.73;;;7.90;99.90;;;;;;4248393;27;20094;-84
2022/05/30 04:23:58;;;;;;;6.05;1.30;;;8.10;99.90;;;;;;4230121;28;20050;-84
2022/05/30 04:25:59;;;;;;;3.45;1.30;;;7.90;99.90;;;;;;4248403;27;20043;-84
2022/05/30 04:28:00;;;;;;;4.78;1.25;;;8.00;99.90;;;;;;4248902;27;20039;-84
2022/05/30 04:30:00;;;;;;;2.67;1.10;;;8.00;99.90;;;;;;4248758;27;20042;-84
2022/05/30 04:32:03;;;;;;;5.22;1.20;;;8.00;99.90;;;;;;4248550;27;20115;-84
2022/05/30 04:34:04;;;;;;;4.13;1.10;;;8.10;99.90;;;;;;4248666;27;20483;-85
2022/05/30 04:36:10;;;;;;;2.85;0.95;;;8.10;99.90;;;;;;4248753;27;20051;-84
2022/05/30 04:38:10;;;;;;;3.13;1.80;;;8.10;99.90;;;;;;4248844;27;20086;-84
2022/05/30 04:40:13;;;;;;;3.03;1.17;;;8.10;99.90;;;;;;4248459;27;20047;-84
2022/05/30 04:42:15;;;;;;;3.25;1.20;;;8.10;99.90;;;;;;4248469;27;20062;-84
2022/05/30 04:44:16;;;;;;;5.60;1.13;;;8.70;99.90;;;;;;4248689;27;20085;-85
2022/05/30 04:46:19;;;;;;;4.00;0.80;;;8.30;99.90;;;;;;4248427;27;20043;-85
2022/05/30 04:48:20;;;;;;;4.22;0.80;;;8.20;99.90;;;;;;4248537;28;20055;-84
2022/05/30 04:50:21;;;;;;;5.63;0.80;;;8.70;99.90;;;;;;4248531;28;20492;-84
2022/05/30 04:52:21;;;;;;;4.53;0.88;;;8.60;99.90;;;;;;4249577;28;20114;-84
2022/05/30 04:54:24;;;;;;;3.55;0.80;;;8.40;99.90;;;;;;4248370;28;20100;-84
2022/05/30 04:56:26;;;;;;;3.53;1.10;;;8.80;99.90;;;;;;4249143;28;20039;-85
2022/05/30 04:58:28;;;;;;;5.85;1.00;;;8.70;99.90;;;;;;4248357;28;20050;-84
2022/05/30 05:00:29;;;;;;;2.75;0.95;;;8.50;99.90;;;;;;4250180;28;20043;-85
2022/05/30 05:02:29;;;;;;;5.20;0.90;;;8.60;99.90;;;;;;4230487;28;20043;-84
2022/05/30 05:04:30;;;;;;;2.92;0.80;;;8.70;99.90;;;;;;4248486;28;20520;-85
2022/05/30 05:06:31;;;;;;;3.42;0.90;;;8.80;99.90;;;;;;4226594;28;20039;-84
2022/05/30 05:08:53;;;;;;;3.65;1.20;;;8.80;99.90;;;;;;4217796;28;20603;-84
2022/05/30 05:11:04;;;;;;;3.15;0.93;;;8.80;99.90;;;;;;4235086;28;20040;-85
2022/05/30 05:13:04;;;;;;;1.65;0.90;;;8.80;99.90;;;;;;4241962;27;20046;-84
2022/05/30 05:15:05;;;;;;;3.97;1.00;;;8.80;99.90;;;;;;4233853;28;20539;-84
2022/05/30 05:17:07;;;;;;;5.13;0.88;;;8.90;99.90;;;;;;4252100;27;20035;-84
2022/05/30 05:19:08;;;;;;;2.50;0.80;;;9.50;99.90;;;;;;4251135;27;20043;-84
2022/05/30 05:21:25;;;;;;;5.10;0.80;;;9.60;99.90;;;;;;4251282;27;20053;-84
2022/05/30 05:23:27;;;;;;;2.35;0.80;;;9.60;99.90;;;;;;4252021;27;20479;-85
2022/05/30 05:25:28;;;;;;;3.40;1.00;;;9.20;99.90;;;;;;4223904;28;20048;-86
2022/05/30 05:27:29;;;;;;;8.70;0.90;;;9.20;99.90;;;;;;4234379;28;20036;-86
2022/05/30 05:29:30;;;;;;;2.03;0.80;;;9.60;99.90;;;;;;4234574;28;20403;-86
2022/05/30 05:31:34;;;;;;;6.88;0.90;;;9.90;99.90;;;;;;4233880;28;20067;-86
2022/05/30 05:33:35;;;;;;;3.90;0.80;;;9.90;99.90;;;;;;4233230;28;20087;-85
2022/05/30 05:35:42;;;;;;;1.42;0.80;;;9.70;99.90;;;;;;4244235;27;20075;-85
2022/05/30 05:37:42;;;;;;;3.55;1.05;;;9.10;99.90;;;;;;4218766;28;20061;-85
2022/05/30 05:39:44;;;;;;;2.17;0.90;;;9.10;99.90;;;;;;4252839;27;20079;-85
2022/05/30 05:41:45;;;;;;;3.60;0.82;;;9.40;99.90;;;;;;4252605;27;20035;-86
2022/05/30 05:43:47;;;;;;;5.13;1.10;;;9.10;99.90;;;;;;4252061;27;20062;-84
2022/05/30 05:45:47;;;;;;;3.47;1.00;;;9.20;99.90;;;;;;4251192;27;20060;-84
2022/05/30 05:47:48;;;;;;;3.75;0.90;;;9.40;99.90;;;;;;4234228;28;20043;-87
2022/05/30 05:49:49;;;;;;;3.55;1.23;;;9.00;99.90;;;;;;4241420;27;20120;-87
2022/05/30 05:51:56;;;;;;;1.88;1.25;;;9.20;99.90;;;;;;4245606;27;20039;-87
2022/05/30 05:53:57;;;;;;;1.63;1.10;;;9.80;99.90;;;;;;4251464;27;20039;-87
2022/05/30 05:55:58;;;;;;;1.83;1.17;;;9.30;99.90;;;;;;4238500;27;20055;-86
2022/05/30 05:57:59;;;;;;;3.40;1.10;;;9.30;99.90;;;;;;4234004;28;20372;-85
2022/05/30 05:59:59;;;;;;;3.95;0.93;;;9.40;99.90;;;;;;4233672;28;20141;-86
2022/05/30 06:02:05;;;;;;;5.35;0.80;;;9.70;99.90;;;;;;4234193;28;20541;-85
2022/05/30 06:04:07;;;;;;;2.03;0.80;;;9.50;99.90;;;;;;4234199;28;20487;-85
2022/05/30 06:06:08;;;;;;;1.55;0.55;;;10.00;99.90;;;;;;4234992;28;20051;-85
2022/05/30 06:08:10;;;;;;;2.60;0.63;;;9.90;99.90;;;;;;4229021;28;20050;-86
2022/05/30 06:10:14;;;;;;;2.97;0.93;;;9.70;99.90;;;;;;4252018;27;20120;-84
2022/05/30 06:12:15;;;;;;;1.48;0.50;;;9.90;99.90;;;;;;4251051;27;20481;-83
2022/05/30 06:14:16;;;;;;;1.20;0.60;;;10.40;99.90;;;;;;4251351;27;20122;-84
2022/05/30 06:16:22;;;;;;;1.88;0.68;;;9.90;99.90;;;;;;4251908;27;20103;-85
2022/05/30 06:18:28;;;;;;;1.48;0.43;;;10.00;99.90;;;;;;4251231;27;20614;-86
2022/05/30 06:20:29;;;;;;;2.20;0.63;;;10.20;99.90;;;;;;4247607;27;20068;-84
2022/05/30 06:22:30;;;;;;;3.45;0.70;;;10.20;99.90;;;;;;4245575;27;20055;-83
2022/05/30 06:24:31;;;;;;;1.55;0.60;;;10.30;99.90;;;;;;4249941;27;20055;-84
2022/05/30 06:26:32;;;;;;;4.28;0.85;;;10.30;99.90;;;;;;4251830;27;20376;-83
2022/05/30 06:28:36;;;;;;;2.10;0.75;;;10.60;99.90;;;;;;4252843;27;20039;-83
2022/05/30 06:30:36;;;;;;;5.70;0.68;;;10.40;99.90;;;;;;4247625;27;20495;-84
2022/05/30 06:32:37;;;;;;;4.18;1.17;;;10.80;99.90;;;;;;4247815;27;20050;-83
2022/05/30 06:34:38;;;;;;;1.10;0.50;;;10.50;99.90;;;;;;4251240;27;20483;-83
2022/05/30 06:36:40;;;;;;;3.63;0.60;;;10.50;99.90;;;;;;4249345;27;20050;-84
2022/05/30 06:38:42;;;;;;;2.05;0.50;;;10.70;99.90;;;;;;4252117;27;20165;-83
2022/05/30 06:40:43;;;;;;;3.03;0.70;;;10.60;99.90;;;;;;4252843;27;20039;-84
2022/05/30 06:42:44;;;;;;;1.60;0.35;;;10.60;99.90;;;;;;4235218;28;20044;-83
2022/05/30 06:44:45;;;;;;;1.67;0.50;;;11.40;99.90;;;;;;4247168;27;20829;-83
2022/05/30 06:46:46;;;;;;;1.08;0.30;;;10.60;99.90;;;;;;4246062;27;20047;-84
2022/05/30 06:48:47;;;;;;;1.63;0.55;;;10.60;99.90;;;;;;4234645;28;20601;-84
2022/05/30 06:50:49;;;;;;;3.58;0.63;;;11.40;99.90;;;;;;4234661;27;20054;-84
2022/05/30 06:52:50;;;;;;;1.10;0.47;;;10.60;99.90;;;;;;4251474;27;20044;-84
2022/05/30 06:54:50;;;;;;;2.42;0.35;;;10.60;99.90;;;;;;4249834;27;20055;-84
2022/05/30 06:59:11;;;;;;;4.97;0.52;;;10.50;99.90;;;;;;4245672;27;20062;-83
2022/05/30 07:01:14;;;;;;;3.60;0.50;;;11.30;99.90;;;;;;4241595;27;20043;-83
2022/05/30 07:03:19;;;;;;;1.80;0.50;;;10.80;99.90;;;;;;4233851;28;20046;-83
2022/05/30 07:05:20;;;;;;;0.90;0.50;;;11.10;99.90;;;;;;4214482;28;20048;-83
2022/05/30 07:07:21;;;;;;;0.50;0.50;;;10.80;99.90;;;;;;4233031;28;20526;-83
2022/05/30 07:09:21;;;;;;;4.90;0.80;;;10.90;99.90;;;;;;4233033;28;20051;-84
2022/05/30 07:11:23;;;;;;;2.60;0.70;;;11.60;99.90;;;;;;4214667;28;20557;-84
2022/05/30 07:13:24;;;;;;;4.10;0.68;;;11.20;99.90;;;;;;4232029;28;20097;-84
2022/05/30 07:15:26;;;;;;;4.88;0.85;;;11.00;99.90;;;;;;4232264;28;20484;-83
2022/05/30 07:17:27;;;;;;;2.85;1.05;;;12.10;99.90;;;;;;4232147;28;20047;-84
2022/05/30 07:19:27;;;;;;;1.08;0.63;;;11.00;99.90;;;;;;4230706;28;20039;-84
2022/05/30 07:21:28;;;;;;;0.82;0.47;;;11.10;99.90;;;;;;4231537;28;20530;-83
2022/05/30 07:23:30;;;;;;;1.65;0.65;;;11.00;99.90;;;;;;4231191;28;20487;-84
2022/05/30 07:25:35;;;;;;;3.10;0.35;;;11.20;99.90;;;;;;4231488;28;20490;-84
2022/05/30 07:27:36;;;;;;;2.05;0.30;;;11.20;99.90;;;;;;4213643;28;20135;-84
2022/05/30 07:29:37;;;;;;;2.03;0.30;;;11.40;99.90;;;;;;4213721;28;20047;-84
2022/05/30 07:31:37;;;;;;;3.03;0.85;;;11.60;99.90;;;;;;4230997;28;20036;-84
2022/05/30 07:33:40;;;;;;;1.60;0.40;;;12.40;99.90;;;;;;4213422;28;20484;-84
2022/05/30 07:35:42;;;;;;;0.82;0.20;;;11.90;99.90;;;;;;4231636;28;20508;-84
2022/05/30 07:37:43;;;;;;;0.57;0.30;;;12.00;99.90;;;;;;4231509;28;20109;-84
2022/05/30 07:39:44;;;;;;;1.05;0.63;;;12.10;99.90;;;;;;4231180;28;20506;-84
2022/05/30 07:41:45;;;;;;;2.65;0.30;;;12.30;99.90;;;;;;4231536;28;20044;-84
2022/05/30 07:43:45;;;;;;;0.40;0.20;;;12.40;99.90;;;;;;4231333;28;20661;-84
2022/05/30 07:45:46;;;;;;;0.80;0.38;;;12.50;99.90;;;;;;4231584;28;20066;-84
2022/05/30 07:47:47;;;;;;;2.17;0.30;;;12.50;99.90;;;;;;4231539;28;20031;-84
2022/05/30 07:49:48;;;;;;;0.52;0.40;;;12.40;99.90;;;;;;4231381;28;20043;-83
2022/05/30 07:51:49;;;;;;;2.00;0.55;;;12.50;99.90;;;;;;4230768;28;20032;-83
2022/05/30 07:53:54;;;;;;;0.73;0.30;;;12.50;99.90;;;;;;4231679;28;20075;-85
2022/05/30 07:55:58;;;;;;;1.33;0.40;;;12.20;99.90;;;;;;4231100;28;20047;-84
2022/05/30 07:58:04;;;;;;;2.05;0.30;;;12.70;99.90;;;;;;4231099;28;20551;-84
2022/05/30 08:00:06;;;;;;;0.52;0.20;;;13.00;99.90;;;;;;4212776;28;20040;-84
2022/05/30 08:02:07;;;;;;;1.95;0.50;;;12.90;99.90;;;;;;4231169;28;20058;-84
2022/05/30 08:04:12;;;;;;;3.50;0.40;;;13.00;99.90;;;;;;4231256;28;20036;-84
2022/05/30 08:06:19;;;;;;;2.10;0.40;;;13.00;99.90;;;;;;4231308;28;20035;-84
2022/05/30 08:08:20;;;;;;;2.38;0.65;;;13.00;99.90;;;;;;4231164;28;20484;-84
2022/05/30 08:10:21;;;;;;;1.90;0.40;;;13.00;99.90;;;;;;4231047;28;20115;-83
2022/05/30 08:12:23;;;;;;;1.23;0.30;;;13.00;99.90;;;;;;4212261;28;20043;-84
2022/05/30 08:14:23;;;;;;;3.83;0.70;;;13.00;99.90;;;;;;4231027;28;20040;-84
2022/05/30 08:16:26;;;;;;;2.85;0.80;;;12.90;99.90;;;;;;4230980;28;20051;-84
2022/05/30 08:18:28;;;;;;;2.75;0.63;;;12.80;99.90;;;;;;4231418;28;20043;-84
2022/05/30 08:20:31;;;;;;;3.80;0.60;;;12.80;99.90;;;;;;4231622;28;20048;-84
2022/05/30 08:22:34;;;;;;;1.90;0.60;;;12.80;99.90;;;;;;4230976;28;20127;-83
2022/05/30 08:24:41;;;;;;;2.33;0.85;;;12.80;99.90;;;;;;4231551;28;20253;-84
2022/05/30 08:26:41;;;;;;;0.57;0.43;;;12.70;99.90;;;;;;4212051;28;20090;-83
2022/05/30 08:28:42;;;;;;;1.10;0.50;;;12.60;99.90;;;;;;4212908;28;20071;-84
2022/05/30 08:30:44;;;;;;;1.05;0.90;;;12.60;99.90;;;;;;4231345;28;20085;-84
2022/05/30 08:32:46;;;;;;;2.88;0.60;;;12.60;99.90;;;;;;4212513;28;20492;-84
2022/05/30 08:34:47;;;;;;;2.25;0.52;;;12.50;99.90;;;;;;4230811;28;20151;-83
2022/05/30 08:36:47;;;;;;;1.58;0.40;;;12.50;99.90;;;;;;4230486;28;20151;-83
2022/05/30 08:38:48;;;;;;;1.20;0.50;;;12.60;99.90;;;;;;4230486;28;20040;-83
2022/05/30 08:43:12;;;;;;;2.17;0.50;;;13.20;99.90;;;;;;4232364;28;20115;-84
2022/05/30 08:45:18;;;;;;;1.65;0.45;;;13.40;99.90;;;;;;4230826;28;20082;-84
2022/05/30 08:47:37;;;;;;;1.17;0.30;;;13.60;99.90;;;;;;4212610;28;20484;-83
2022/05/30 08:49:47;;;;;;;2.28;0.32;;;13.50;99.90;;;;;;4212101;28;20404;-84
2022/05/30 08:52:16;;;;;;;2.35;0.40;;;13.50;99.90;;;;;;4230509;28;20082;-84
2022/05/30 08:54:34;;;;;;;;;;;13.50;99.90;;;;;;4230835;28;20057;-84
2022/05/30 08:56:39;;;;;;;1.13;0.20;;;13.50;99.90;;;;;;4212601;28;19950;-84
2022/05/30 08:59:20;;;;;;;0.40;0.20;;;13.80;99.90;;;;;;4230357;28;20118;-84
2022/05/30 09:01:31;;;;;;;2.03;0.30;;;13.90;99.90;;;;;;4230528;28;20047;-84
2022/05/30 09:04:11;;;;;;;0.20;0.20;;;;;;;;;;4230829;28;20050;-84
2022/05/30 09:06:21;;;;;;;1.15;0.25;;;;;;;;;;4228941;28;20063;-84
2022/05/30 09:08:26;;;;;;;1.33;0.68;;;;;;;;;;4230893;28;20043;-83
2022/05/30 09:10:27;;;;;;;0.32;0.30;;;;;;;;;;4211648;28;20566;-84
2022/05/30 09:12:41;;;;;;;1.08;0.30;;;14.00;99.90;;;;;;4230218;28;20039;-84
2022/05/30 09:15:03;;;;;;;1.40;0.35;;;13.60;99.50;;;;;;4230350;28;20062;-84
2022/05/30 09:17:10;;;;;;;2.28;0.35;;;13.40;99.50;;;;;;4212421;28;20044;-84
2022/05/30 09:19:12;;;;;;;2.08;0.30;;;13.30;99.90;;;;;;4230380;28;20395;-84
2022/05/30 09:21:15;;;;;;;1.85;0.50;;;13.20;99.90;;;;;;4230340;28;20047;-84
2022/05/30 09:23:20;;;;;;;3.75;0.43;;;13.10;99.90;;;;;;4230219;28;20059;-83
2022/05/30 09:27:48;;;;;;;4.88;0.50;;;13.10;99.90;;;;;;4230406;28;20066;-83
2022/05/30 09:29:55;;;;;;;1.73;0.30;;;13.10;99.90;;;;;;4212552;28;20483;-83
2022/05/30 09:32:02;;;;;;;0.40;0.38;;;13.00;99.90;;;;;;4230275;28;20040;-84
2022/05/30 09:34:35;;;;;;;1.30;0.35;;;13.10;99.90;;;;;;4230111;28;20124;-84
2022/05/30 09:36:48;;;;;;;1.70;0.50;;;13.20;99.90;;;;;;4211785;28;20059;-84
2022/05/30 09:38:59;;;;;;;2.88;0.50;;;13.30;99.90;;;;;;4230355;28;20045;-84
2022/05/30 09:41:06;;;;;;;1.48;0.57;;;13.50;99.90;;;;;;4230069;28;20046;-84
2022/05/30 09:43:08;;;;;;;0.50;0.13;;;;;;;;;;4230339;28;20066;-84
2022/05/30 09:45:10;;;;;;;2.20;0.30;;;13.50;99.90;;;;;;4229933;28;20517;-84
2022/05/30 09:47:18;;;;;;;0.20;0.20;;;13.70;99.90;;;;;;4212295;28;20044;-84
2022/05/30 09:49:27;;;;;;;2.38;0.30;;;13.70;99.90;;;;;;4230381;28;20040;-84
2022/05/30 09:51:32;;;;;;;0.77;0.30;;;13.90;99.90;;;;;;4212291;28;20044;-83
2022/05/30 09:53:49;;;;;;;0.75;0.43;;;13.90;99.40;;;;;;4212088;28;20056;-83
2022/05/30 09:55:54;;;;;;;0.82;0.30;;;13.80;99.30;;;;;;4233001;28;20054;-83
2022/05/30 09:57:55;;;;;;;2.35;0.30;;;13.80;99.50;;;;;;4233594;28;20048;-83
2022/05/30 10:00:05;;;;;;;0.75;0.40;;;14.00;99.80;;;;;;4233817;28;20050;-84
2022/05/30 10:02:23;;;;;;;0.22;0.22;;;;;;;;;;4233416;28;20127;-84
2022/05/30 10:04:50;;;;;;;0.65;0.50;;;;;;;;;;4232653;28;20044;-84
2022/05/30 10:07:03;;;;;;;2.53;0.40;;;;;;;;;;4229063;28;20079;-83
2022/05/30 10:09:11;;;;;;;0.65;0.20;;;;;;;;;;4215348;28;20055;-84
2022/05/30 10:11:35;;;;;;;2.55;0.30;;;;;;;;;;4233122;28;20051;-84
2022/05/30 10:13:37;;;;;;;2.03;0.63;;;;;;;;;;4214546;28;20052;-84
2022/05/30 10:15:39;;;;;;;3.67;0.85;;;;;;;;;;4232708;28;20039;-84
2022/05/30 10:17:40;;;;;;;0.55;0.30;;;;;;;;;;4214958;28;20063;-83
2022/05/30 10:19:42;;;;;;;2.63;0.38;;;;;;;;;;4232856;28;20446;-84
2022/05/30 10:30:08;;;;;;;0.28;0.20;;;15.30;98.00;;;;;;4208306;28;20130;-83
2022/05/30 10:32:46;;;;;;;1.17;0.70;;;15.60;98.40;;;;;;4232508;28;20123;-84
2022/05/30 10:35:05;;;;;;;1.80;0.20;;;15.70;96.50;;;;;;4232648;28;20115;-83
2022/05/30 10:37:22;;;;;;;0.30;0.20;;;15.60;96.50;;;;;;4232279;28;20086;-84
2022/05/30 10:39:55;;;;;;;2.08;0.30;;;15.60;97.00;;;;;;4232546;28;20536;-83
2022/05/30 10:42:08;;;;;;;0.95;0.30;;;15.40;96.50;;;;;;4232453;28;20055;-83
2022/05/30 10:44:17;;;;;;;0.28;0.28;;;15.40;96.50;;;;;;4232557;28;20588;-84
2022/05/30 10:46:45;;;;;;;0.57;0.28;;;15.40;97.00;;;;;;4232527;28;20089;-84
2022/05/30 10:49:03;;;;;;;0.32;0.30;;;15.30;96.30;;;;;;4232457;28;20395;-83
2022/05/30 10:51:09;;;;;;;5.28;0.50;;;15.10;96.00;;;;;;4232168;28;20087;-83
2022/05/30 10:53:29;;;;;;;2.08;0.40;;;15.00;96.40;;;;;;4232649;28;20027;-83
2022/05/30 10:55:38;;;;;;;2.30;0.35;;;14.90;96.40;;;;;;4214644;28;20123;-84
2022/05/30 10:57:41;;;;;;;;;;;14.80;97.00;;;;;;4232820;28;20039;-84
2022/05/30 10:59:47;;;;;;;1.00;0.40;;;14.60;96.00;;;;;;4214502;28;19944;-84
2022/05/30 11:01:56;;;;;;;1.35;0.93;;;14.60;97.40;;;;;;4232107;28;20058;-84
2022/05/30 11:04:12;;;;;;;2.47;0.50;;;14.50;97.40;;;;;;4232544;28;20139;-84
2022/05/30 11:06:28;;;;;;;1.23;0.38;;;14.40;97.50;;;;;;4231502;28;20130;-84
2022/05/30 11:08:44;;;;;;;1.23;0.43;;;14.50;97.60;;;;;;4231718;28;20510;-84
2022/05/30 11:10:58;;;;;;;2.95;0.50;;;14.20;97.70;;;;;;4232029;28;20082;-83
2022/05/30 11:13:21;;;;;;;1.08;0.38;;;14.50;97.80;;;;;;4231789;28;20043;-83
2022/05/30 11:15:27;;;;;;;0.60;0.20;;;14.60;97.50;;;;;;4231661;28;20478;-84
2022/05/30 11:17:37;;;;;;;2.40;0.32;;;14.80;97.40;;;;;;4231881;28;20048;-84
2022/05/30 11:19:56;;;;;;;1.08;0.30;;;14.80;96.60;;;;;;4213802;28;20052;-84
2022/05/30 11:22:12;;;;;;;;;;;15.00;96.30;;;;;;4232428;28;20135;-84